Time;durP1;ratioP1;P1;durP2;ratioP2;P2;SDS_P1;SDS_P2;PMS_P1;PMS_P2;Temp;Humidity;BMP_temperature;BMP_pressure;BME280_temperature;BME280_humidity;BME280_pressure;Samples;Min_cycle;Max_cycle;Signal;HPM_P1;HPM_P2
2022/10/29 05:36:42;;;;;;;3.23;2.60;;;20.90;99.90;;;;;;5109308;27;20578;-54
2022/10/29 05:39:09;;;;;;;3.43;2.50;;;21.00;99.90;;;;;;5092991;28;20777;-65
2022/10/29 05:41:36;;;;;;;3.17;2.97;;;21.10;99.90;;;;;;5089438;28;20439;-59
2022/10/29 05:44:03;;;;;;;2.67;2.47;;;21.30;99.90;;;;;;5089328;28;20543;-65
2022/10/29 05:46:30;;;;;;;3.17;2.87;;;21.40;99.90;;;;;;5089381;28;20439;-67
2022/10/29 05:48:57;;;;;;;4.10;2.50;;;21.50;99.90;;;;;;5089244;28;20485;-65
2022/10/29 05:51:24;;;;;;;3.57;3.37;;;21.70;99.90;;;;;;5090012;28;20614;-61
2022/10/29 05:53:52;;;;;;;2.83;2.73;;;21.80;99.90;;;;;;5089541;28;20888;-65
2022/10/29 05:56:19;;;;;;;2.60;2.40;;;21.90;99.90;;;;;;5088994;28;20496;-63
2022/10/29 05:58:48;;;;;;;3.07;2.90;;;22.00;99.90;;;;;;5089510;28;20535;-61
2022/10/29 06:01:18;;;;;;;2.90;2.70;;;22.10;99.90;;;;;;5089514;28;20442;-58
2022/10/29 06:03:45;;;;;;;3.23;2.87;;;22.20;99.90;;;;;;5089263;28;20553;-68
2022/10/29 06:06:13;;;;;;;4.37;3.60;;;22.30;99.90;;;;;;5089238;28;20439;-67
2022/10/29 06:08:39;;;;;;;3.10;2.30;;;22.30;99.90;;;;;;5088985;28;20454;-59
2022/10/29 06:11:08;;;;;;;2.57;2.37;;;22.40;99.90;;;;;;5088913;28;20529;-61
2022/10/29 06:13:34;;;;;;;3.33;2.67;;;22.50;99.90;;;;;;5088795;28;20531;-66
2022/10/29 06:16:01;;;;;;;3.80;2.90;;;22.50;99.90;;;;;;5089013;28;20482;-62
2022/10/29 06:18:29;;;;;;;4.17;3.10;;;22.50;99.90;;;;;;5088460;28;20973;-66
2022/10/29 06:20:58;;;;;;;2.73;2.53;;;22.60;99.90;;;;;;5088682;28;20447;-66
2022/10/29 06:23:25;;;;;;;4.90;3.83;;;22.60;99.90;;;;;;5088897;28;20512;-64
2022/10/29 06:25:52;;;;;;;3.03;2.73;;;22.60;99.90;;;;;;5088747;28;20848;-64
2022/10/29 06:28:20;;;;;;;2.90;2.70;;;22.70;99.90;;;;;;5088483;28;20455;-64
2022/10/29 06:30:49;;;;;;;3.33;3.10;;;22.70;99.90;;;;;;5088515;28;20890;-66
2022/10/29 06:33:16;;;;;;;3.10;2.83;;;22.80;99.90;;;;;;5088424;28;20467;-63
2022/10/29 06:35:43;;;;;;;3.20;3.00;;;22.80;99.90;;;;;;5088416;28;20490;-66
2022/10/29 06:38:10;;;;;;;3.03;2.53;;;22.80;99.90;;;;;;5088021;28;20499;-59
2022/10/29 06:40:37;;;;;;;3.93;2.77;;;22.90;99.90;;;;;;5088310;28;20438;-58
2022/10/29 06:43:06;;;;;;;2.60;2.40;;;22.90;99.90;;;;;;5088361;28;20525;-61
2022/10/29 06:45:34;;;;;;;3.13;2.70;;;22.90;99.90;;;;;;5088157;28;20444;-60
2022/10/29 06:48:03;;;;;;;3.47;3.17;;;22.90;99.90;;;;;;5075044;28;20869;-60
2022/10/29 06:50:31;;;;;;;3.17;2.97;;;22.90;99.90;;;;;;5074623;28;20450;-62
2022/10/29 06:53:00;;;;;;;2.80;2.60;;;23.00;99.90;;;;;;5074821;28;20522;-67
2022/10/29 06:55:27;;;;;;;2.60;2.00;;;23.00;99.90;;;;;;5075139;28;20566;-67
2022/10/29 06:57:58;;;;;;;2.93;2.63;;;23.00;99.90;;;;;;5075002;28;20538;-66
2022/10/29 07:00:25;;;;;;;3.53;3.23;;;23.00;99.90;;;;;;5074658;28;20443;-66
2022/10/29 07:02:54;;;;;;;2.80;2.70;;;23.00;99.90;;;;;;5074949;28;20469;-67
2022/10/29 07:05:21;;;;;;;2.20;2.10;;;23.00;99.90;;;;;;5074615;28;20859;-64
2022/10/29 07:07:48;;;;;;;3.10;2.90;;;23.00;99.90;;;;;;5074883;28;20533;-67
2022/10/29 07:10:15;;;;;;;4.23;2.80;;;23.00;99.90;;;;;;5074837;28;20442;-68
2022/10/29 07:12:42;;;;;;;2.50;2.40;;;23.00;99.90;;;;;;5075178;28;20440;-66
2022/10/29 07:15:11;;;;;;;4.57;2.80;;;23.00;99.90;;;;;;5074248;28;20490;-65
2022/10/29 07:17:38;;;;;;;2.80;2.60;;;23.00;99.90;;;;;;5074929;28;20954;-66
2022/10/29 07:20:08;;;;;;;2.70;2.60;;;23.00;99.90;;;;;;5074641;28;20443;-63
2022/10/29 07:22:35;;;;;;;2.63;2.53;;;23.00;99.90;;;;;;5074780;28;20443;-64
2022/10/29 07:25:02;;;;;;;2.30;2.20;;;23.00;99.90;;;;;;5074425;28;21230;-65
2022/10/29 07:27:29;;;;;;;3.30;3.10;;;23.00;99.90;;;;;;5074577;28;20534;-67
2022/10/29 07:29:56;;;;;;;2.60;2.50;;;23.00;99.90;;;;;;5074619;28;20479;-66
2022/10/29 07:32:23;;;;;;;3.27;2.63;;;22.90;99.90;;;;;;5074534;28;20522;-66
2022/10/29 07:34:50;;;;;;;5.03;4.67;;;22.90;99.90;;;;;;5074831;28;20479;-66
2022/10/29 07:37:18;;;;;;;2.93;2.60;;;22.80;99.90;;;;;;5075060;28;20454;-66
2022/10/29 07:39:45;;;;;;;2.80;2.60;;;22.80;99.90;;;;;;5077657;28;20529;-67
2022/10/29 07:42:12;;;;;;;3.10;2.90;;;22.70;99.90;;;;;;5078133;28;20530;-65
2022/10/29 07:44:39;;;;;;;3.13;2.93;;;22.70;99.90;;;;;;5076410;28;20534;-65
2022/10/29 07:47:06;;;;;;;3.13;2.93;;;22.70;99.90;;;;;;5076647;28;20522;-65
2022/10/29 07:49:32;;;;;;;4.30;3.00;;;22.60;99.90;;;;;;5075392;28;20507;-66
2022/10/29 07:51:59;;;;;;;2.20;2.10;;;22.60;99.90;;;;;;5075210;28;20486;-67
2022/10/29 07:54:27;;;;;;;2.87;2.67;;;22.60;99.90;;;;;;5075823;28;20514;-66
2022/10/29 07:56:54;;;;;;;2.83;2.60;;;22.50;99.90;;;;;;5076156;28;20478;-67
2022/10/29 07:59:21;;;;;;;3.67;3.40;;;22.50;99.90;;;;;;5074811;28;20483;-68
2022/10/29 08:01:48;;;;;;;3.60;3.30;;;22.50;99.90;;;;;;5075320;28;20475;-66
2022/10/29 08:04:15;;;;;;;6.63;3.00;;;22.40;99.90;;;;;;5076500;28;20547;-64
2022/10/29 08:06:43;;;;;;;3.50;3.30;;;22.50;99.90;;;;;;5077099;28;20469;-68
2022/10/29 08:09:11;;;;;;;2.50;2.40;;;22.50;99.90;;;;;;5074800;28;20530;-69
2022/10/29 08:11:39;;;;;;;3.50;3.20;;;22.40;99.90;;;;;;5075908;28;20450;-67
2022/10/29 08:14:06;;;;;;;2.60;2.40;;;22.40;99.90;;;;;;5074370;28;20474;-67
2022/10/29 08:16:33;;;;;;;2.87;2.67;;;22.40;99.90;;;;;;5073421;28;20478;-68
2022/10/29 08:19:00;;;;;;;2.83;2.63;;;22.40;99.90;;;;;;5073344;28;20546;-65
2022/10/29 08:21:27;;;;;;;3.00;2.80;;;22.40;99.90;;;;;;5073270;28;20443;-67
2022/10/29 08:23:55;;;;;;;3.07;2.87;;;22.40;99.90;;;;;;5072940;28;20459;-67
2022/10/29 08:26:22;;;;;;;2.40;2.20;;;22.40;99.90;;;;;;5073146;28;20467;-68
2022/10/29 08:28:50;;;;;;;2.90;2.40;;;22.40;99.90;;;;;;5072521;28;20889;-64
2022/10/29 08:31:18;;;;;;;2.40;2.30;;;22.40;99.90;;;;;;5072481;28;20439;-60
2022/10/29 08:33:45;;;;;;;2.77;2.57;;;22.40;99.90;;;;;;5073012;28;20477;-61
2022/10/29 08:36:13;;;;;;;2.77;2.57;;;22.40;99.90;;;;;;5072878;28;20478;-69
2022/10/29 08:38:40;;;;;;;2.63;2.43;;;22.50;99.90;;;;;;5073073;28;21019;-66
2022/10/29 08:41:30;;;;;;;2.90;2.70;;;22.50;99.90;;;;;;5072887;28;20440;-67
2022/10/29 08:44:39;;;;;;;2.90;2.70;;;22.60;99.90;;;;;;5072695;28;20463;-66
2022/10/29 08:47:13;;;;;;;3.67;3.40;;;22.60;99.90;;;;;;5016107;28;20449;-65
2022/10/29 08:49:43;;;;;;;2.23;2.13;;;22.70;99.90;;;;;;5072428;28;20447;-62
2022/10/29 08:52:18;;;;;;;2.70;2.50;;;22.70;99.90;;;;;;5072300;28;20527;-59
2022/10/29 08:54:51;;;;;;;4.53;3.77;;;22.70;99.90;;;;;;5073120;28;20494;-65
2022/10/29 08:57:21;;;;;;;3.97;3.47;;;22.80;99.90;;;;;;5072240;28;20490;-63
2022/10/29 09:00:01;;;;;;;3.20;3.00;;;22.90;99.90;;;;;;5072379;28;20445;-67
2022/10/29 09:02:30;;;;;;;3.83;2.47;;;22.90;99.90;;;;;;5072726;28;20487;-66
2022/10/29 09:04:57;;;;;;;4.93;3.47;;;22.90;99.90;;;;;;5072158;28;20463;-64
2022/10/29 09:07:50;;;;;;;4.43;3.10;;;22.90;99.90;;;;;;5072193;28;20530;-64
2022/10/29 09:10:26;;;;;;;2.43;2.33;;;22.90;99.90;;;;;;5071884;28;21043;-64
2022/10/29 09:13:07;;;;;;;2.90;2.70;;;23.00;99.90;;;;;;5072109;28;20451;-63
2022/10/29 09:16:01;;;;;;;7.77;3.23;;;23.00;99.90;;;;;;5071902;28;20527;-64
2022/10/29 09:18:40;;;;;;;3.63;3.03;;;23.00;99.90;;;;;;5066670;28;20447;-64
2022/10/29 09:21:18;;;;;;;3.13;2.83;;;23.10;99.90;;;;;;5071679;28;20829;-66
2022/10/29 09:24:02;;;;;;;2.60;2.50;;;23.10;99.90;;;;;;5071692;28;20550;-66
2022/10/29 09:26:33;;;;;;;2.93;2.57;;;23.10;99.90;;;;;;5071755;28;20965;-67
2022/10/29 09:29:22;;;;;;;2.70;2.50;;;23.20;99.90;;;;;;5071760;28;20479;-64
2022/10/29 09:31:53;;;;;;;2.73;2.53;;;23.20;99.90;;;;;;5071154;28;20448;-63
2022/10/29 09:34:28;;;;;;;2.83;2.63;;;23.20;99.90;;;;;;5071301;28;20899;-63
2022/10/29 09:36:56;;;;;;;2.83;2.50;;;23.30;99.90;;;;;;5071978;28;20562;-68
2022/10/29 09:39:28;;;;;;;2.50;2.30;;;23.30;99.90;;;;;;5071823;28;20454;-68
2022/10/29 09:41:57;;;;;;;2.67;2.50;;;23.30;99.90;;;;;;5071313;28;21074;-67
2022/10/29 09:44:31;;;;;;;3.20;2.40;;;23.20;99.90;;;;;;5071685;28;20903;-66
2022/10/29 09:47:12;;;;;;;3.40;3.20;;;23.30;99.90;;;;;;5071494;28;20806;-63
2022/10/29 09:49:51;;;;;;;2.27;2.10;;;23.30;99.90;;;;;;5071596;28;20535;-64
2022/10/29 09:52:22;;;;;;;4.57;2.93;;;23.30;99.90;;;;;;5071408;28;20542;-63
2022/10/29 09:54:51;;;;;;;5.07;2.40;;;23.30;99.90;;;;;;5071113;28;20546;-65
2022/10/29 09:57:21;;;;;;;3.57;3.37;;;23.30;99.90;;;;;;5071531;28;20489;-65
2022/10/29 09:59:53;;;;;;;2.73;2.53;;;23.30;99.90;;;;;;5071445;28;20932;-64
2022/10/29 10:02:28;;;;;;;2.90;2.70;;;23.30;99.90;;;;;;5071262;28;20439;-65
2022/10/29 10:05:00;;;;;;;2.10;2.00;;;23.40;99.90;;;;;;5071424;28;21167;-65
2022/10/29 10:07:28;;;;;;;2.57;2.37;;;23.40;99.90;;;;;;5071692;28;20444;-66
2022/10/29 10:09:56;;;;;;;3.57;3.00;;;23.40;99.90;;;;;;5070470;28;20483;-67
2022/10/29 10:12:26;;;;;;;3.90;3.00;;;23.40;99.90;;;;;;5071417;28;20458;-61
2022/10/29 10:15:16;;;;;;;2.20;2.10;;;23.40;99.90;;;;;;5071749;28;20520;-65
2022/10/29 10:17:58;;;;;;;5.40;2.53;;;23.50;99.90;;;;;;5071810;28;20475;-61
2022/10/29 10:20:40;;;;;;;2.40;2.20;;;23.50;99.90;;;;;;5071408;28;20527;-63
2022/10/29 10:23:22;;;;;;;2.03;1.93;;;23.50;99.90;;;;;;5074704;28;20449;-59
2022/10/29 10:25:50;;;;;;;2.80;2.60;;;23.50;99.90;;;;;;5075425;28;20447;-66
2022/10/29 10:28:19;;;;;;;3.67;2.60;;;23.50;99.90;;;;;;5075697;28;20538;-67
2022/10/29 10:31:05;;;;;;;3.53;3.33;;;23.50;99.90;;;;;;5075207;28;20526;-67
2022/10/29 10:33:33;;;;;;;2.73;2.53;;;23.40;99.90;;;;;;5075995;28;20463;-65
2022/10/29 10:36:06;;;;;;;3.07;2.87;;;23.50;99.90;;;;;;5075597;28;20466;-70
2022/10/29 10:38:41;;;;;;;2.30;2.20;;;23.50;99.90;;;;;;5075848;28;20522;-68
2022/10/29 10:41:11;;;;;;;2.37;2.27;;;23.50;99.90;;;;;;5076813;28;20811;-70
2022/10/29 10:43:41;;;;;;;2.90;2.70;;;23.50;99.90;;;;;;5083532;28;20527;-70
2022/10/29 10:46:14;;;;;;;2.20;2.10;;;23.50;99.90;;;;;;5076643;28;20530;-65
2022/10/29 10:48:41;;;;;;;4.13;3.10;;;23.50;99.90;;;;;;5075753;28;20449;-66
2022/10/29 10:51:23;;;;;;;2.67;2.47;;;23.40;99.90;;;;;;5075382;28;20546;-70
2022/10/29 10:53:51;;;;;;;5.17;2.70;;;23.50;99.90;;;;;;5061769;28;20466;-63
2022/10/29 10:56:20;;;;;;;2.40;2.30;;;23.50;99.90;;;;;;5075518;28;20562;-70
2022/10/29 10:58:52;;;;;;;2.50;2.40;;;23.40;99.90;;;;;;5075546;28;20479;-55
2022/10/29 11:01:25;;;;;;;2.20;2.10;;;23.40;99.90;;;;;;5075575;28;20526;-67
2022/10/29 11:03:59;;;;;;;4.30;3.57;;;23.40;99.90;;;;;;5075478;28;20463;-69
2022/10/29 11:06:31;;;;;;;3.33;3.07;;;23.40;99.90;;;;;;5075324;28;20478;-66
2022/10/29 11:09:05;;;;;;;3.93;3.53;;;23.40;99.90;;;;;;5075964;28;20932;-69
2022/10/29 11:11:37;;;;;;;5.50;3.57;;;23.40;99.90;;;;;;5075310;28;20475;-66
2022/10/29 11:14:10;;;;;;;6.60;4.27;;;23.40;99.90;;;;;;5075734;28;20870;-67
2022/10/29 11:16:40;;;;;;;4.07;3.80;;;23.50;99.90;;;;;;5075306;28;20562;-71
2022/10/29 11:19:17;;;;;;;4.20;3.83;;;23.50;99.90;;;;;;5075793;28;20502;-69
2022/10/29 11:21:53;;;;;;;3.53;3.23;;;23.50;99.90;;;;;;5075679;28;20439;-67
2022/10/29 11:24:25;;;;;;;4.67;4.23;;;23.50;99.90;;;;;;5075396;28;20471;-67
2022/10/29 11:26:58;;;;;;;4.57;4.27;;;23.60;99.90;;;;;;5075030;28;20514;-67
2022/10/29 11:29:32;;;;;;;4.20;3.90;;;23.60;99.90;;;;;;5074997;28;20538;-66
2022/10/29 11:32:05;;;;;;;4.13;3.87;;;23.60;99.90;;;;;;5074146;28;20439;-67
2022/10/29 11:34:45;;;;;;;4.57;4.23;;;23.60;99.90;;;;;;5075461;28;20494;-65
2022/10/29 11:37:22;;;;;;;5.40;4.47;;;23.60;99.90;;;;;;5074853;28;21000;-69
2022/10/29 11:39:55;;;;;;;3.80;3.47;;;23.60;99.90;;;;;;5075223;28;20442;-68
2022/10/29 11:42:22;;;;;;;5.03;3.53;;;23.60;99.90;;;;;;5054474;28;20483;-66
2022/10/29 11:44:49;;;;;;;3.70;3.40;;;23.60;99.90;;;;;;5056848;28;20473;-69
2022/10/29 11:47:28;;;;;;;3.70;3.40;;;23.70;99.90;;;;;;5073406;28;21015;-69
2022/10/29 11:50:11;;;;;;;4.40;3.20;;;23.60;99.90;;;;;;5073798;28;20447;-68
2022/10/29 11:52:47;;;;;;;4.00;3.70;;;23.60;99.90;;;;;;5073278;28;20883;-68
2022/10/29 11:55:23;;;;;;;6.33;3.63;;;23.60;99.90;;;;;;5073104;28;20935;-70
2022/10/29 11:57:55;;;;;;;8.30;5.00;;;23.60;99.90;;;;;;5075916;28;20485;-66
2022/10/29 12:00:23;;;;;;;12.63;6.30;;;23.60;99.90;;;;;;5075921;28;20507;-71
2022/10/29 12:03:14;;;;;;;18.70;6.70;;;23.70;99.90;;;;;;5074639;28;20459;-64
2022/10/29 12:05:45;;;;;;;11.30;7.10;;;23.60;99.90;;;;;;5060955;28;21015;-65
2022/10/29 12:08:27;;;;;;;17.50;7.20;;;23.60;99.90;;;;;;5078730;28;20459;-64
2022/10/29 12:11:02;;;;;;;8.90;5.63;;;23.50;99.90;;;;;;5087186;28;20458;-65
2022/10/29 12:13:42;;;;;;;14.93;6.13;;;23.50;99.90;;;;;;5087707;28;20498;-65
2022/10/29 12:16:19;;;;;;;11.40;5.53;;;23.50;99.90;;;;;;5088702;28;20430;-64
2022/10/29 12:18:50;;;;;;;10.97;6.50;;;23.40;99.90;;;;;;5087848;28;20502;-65
2022/10/29 12:21:28;;;;;;;13.43;6.07;;;23.40;99.90;;;;;;5089633;28;20499;-65
2022/10/29 12:24:12;;;;;;;11.80;6.10;;;23.40;99.90;;;;;;5090063;28;20522;-64
2022/10/29 12:26:44;;;;;;;10.33;5.90;;;23.40;99.90;;;;;;5077942;28;20439;-65
2022/10/29 12:29:18;;;;;;;11.23;7.00;;;23.40;99.90;;;;;;5073484;28;20522;-65
2022/10/29 12:31:54;;;;;;;11.17;5.50;;;23.40;99.90;;;;;;5072580;28;20804;-65
2022/10/29 12:34:27;;;;;;;9.73;6.77;;;23.30;99.90;;;;;;5072518;28;20868;-65
2022/10/29 12:37:04;;;;;;;9.83;5.27;;;23.30;99.90;;;;;;5072733;28;20479;-68
2022/10/29 12:39:36;;;;;;;12.13;6.37;;;23.30;99.90;;;;;;5073432;28;20526;-67
2022/10/29 12:42:07;;;;;;;13.83;5.33;;;23.40;99.90;;;;;;5073495;28;21040;-69
2022/10/29 12:44:41;;;;;;;13.70;5.13;;;23.40;99.90;;;;;;5073376;28;20496;-68
2022/10/29 12:47:14;;;;;;;10.60;5.27;;;23.50;99.90;;;;;;5073732;28;20485;-68
2022/10/29 12:49:55;;;;;;;13.33;5.20;;;23.50;99.90;;;;;;5074130;28;20527;-71
2022/10/29 12:52:28;;;;;;;12.50;5.40;;;23.50;99.90;;;;;;5073654;28;20986;-66
2022/10/29 12:54:59;;;;;;;11.47;4.50;;;23.50;99.90;;;;;;5072760;28;20546;-69
2022/10/29 12:57:33;;;;;;;10.37;5.43;;;23.60;99.90;;;;;;5073626;28;20479;-70
2022/10/29 13:00:43;;;;;;;9.47;5.40;;;23.60;99.90;;;;;;5072834;28;20505;-71
2022/10/29 13:03:10;;;;;;;7.70;4.50;;;23.60;99.90;;;;;;5073055;28;20439;-69
2022/10/29 13:05:40;;;;;;;10.90;5.00;;;23.70;99.90;;;;;;5073028;28;20522;-66
2022/10/29 13:08:26;;;;;;;8.80;5.90;;;23.70;99.90;;;;;;5072380;28;20432;-67
2022/10/29 13:10:56;;;;;;;6.40;4.10;;;23.70;99.90;;;;;;5073463;28;20449;-66
2022/10/29 13:13:48;;;;;;;9.33;4.87;;;23.70;99.90;;;;;;5072462;28;20461;-67
2022/10/29 13:16:19;;;;;;;6.87;5.83;;;23.70;99.90;;;;;;5072400;28;20435;-66
2022/10/29 13:19:16;;;;;;;10.20;4.60;;;23.70;99.90;;;;;;5072583;28;20843;-63
2022/10/29 13:22:00;;;;;;;12.10;5.03;;;23.60;99.90;;;;;;5055739;28;20474;-67
2022/10/29 13:24:28;;;;;;;6.30;4.57;;;23.70;99.90;;;;;;5052670;28;20492;-67
2022/10/29 13:26:59;;;;;;;5.17;3.67;;;23.70;99.90;;;;;;5051826;28;20479;-68
2022/10/29 13:29:46;;;;;;;10.43;5.53;;;23.70;99.90;;;;;;5056137;28;20445;-66
2022/10/29 13:32:34;;;;;;;8.77;4.50;;;23.60;99.90;;;;;;5071577;28;20445;-65
2022/10/29 13:35:02;;;;;;;5.67;3.97;;;23.50;99.90;;;;;;5071469;28;21004;-66
2022/10/29 13:38:14;;;;;;;10.50;4.03;;;23.50;99.90;;;;;;5071578;28;20483;-65
2022/10/29 13:41:10;;;;;;;7.20;3.50;;;23.40;99.90;;;;;;5071385;28;20450;-65
2022/10/29 13:43:40;;;;;;;6.27;4.20;;;23.40;99.90;;;;;;5071605;28;20941;-64
2022/10/29 13:46:26;;;;;;;8.30;4.70;;;23.30;99.90;;;;;;5071650;28;20450;-65
2022/10/29 13:48:55;;;;;;;7.00;4.20;;;23.30;99.90;;;;;;5071781;28;20447;-64
2022/10/29 13:51:30;;;;;;;4.67;3.43;;;23.30;99.90;;;;;;5071355;28;20447;-65
2022/10/29 13:54:04;;;;;;;9.50;4.40;;;23.20;99.90;;;;;;5071158;28;20494;-64
2022/10/29 13:56:39;;;;;;;6.93;3.83;;;23.20;99.90;;;;;;5072051;28;20546;-64
2022/10/29 13:59:13;;;;;;;6.60;4.40;;;23.20;99.90;;;;;;5075500;28;21029;-64
2022/10/29 14:01:58;;;;;;;11.20;4.07;;;23.10;99.90;;;;;;5075342;28;20992;-65
2022/10/29 14:04:30;;;;;;;4.70;4.10;;;23.10;99.90;;;;;;5075328;28;20463;-66
2022/10/29 14:07:00;;;;;;;3.63;2.93;;;23.10;99.90;;;;;;5075359;28;20443;-66
2022/10/29 14:09:36;;;;;;;6.33;3.57;;;23.00;99.90;;;;;;5075511;28;20439;-66
2022/10/29 14:12:07;;;;;;;5.87;4.17;;;23.00;99.90;;;;;;5075222;28;20459;-66
2022/10/29 14:14:42;;;;;;;7.47;4.10;;;23.00;99.90;;;;;;5075111;28;20466;-66
2022/10/29 14:17:11;;;;;;;5.87;3.03;;;23.00;99.90;;;;;;5075313;28;20798;-66
2022/10/29 14:19:42;;;;;;;9.40;4.43;;;23.00;99.90;;;;;;5074930;28;20439;-66
2022/10/29 14:22:21;;;;;;;5.43;3.97;;;22.90;99.90;;;;;;5075006;28;20453;-66
2022/10/29 14:24:48;;;;;;;6.77;3.40;;;22.90;99.90;;;;;;5075028;28;20964;-66
2022/10/29 14:27:15;;;;;;;3.27;2.90;;;22.90;99.90;;;;;;5074957;28;20439;-66
2022/10/29 14:29:43;;;;;;;7.00;4.30;;;22.90;99.90;;;;;;5074777;28;20467;-66
2022/10/29 14:32:12;;;;;;;4.37;3.00;;;22.90;99.90;;;;;;5074742;28;20447;-66
2022/10/29 14:34:39;;;;;;;3.93;3.50;;;22.90;99.90;;;;;;5074659;28;20479;-66
2022/10/29 14:37:13;;;;;;;4.70;3.13;;;22.90;99.90;;;;;;5074799;28;20542;-66
2022/10/29 14:39:43;;;;;;;8.60;3.77;;;22.90;99.90;;;;;;5074572;28;20811;-66
2022/10/29 14:42:25;;;;;;;4.23;3.87;;;22.90;99.90;;;;;;5074606;28;21145;-66
2022/10/29 14:44:57;;;;;;;2.90;2.70;;;22.90;99.90;;;;;;5074753;28;20541;-66
2022/10/29 14:47:27;;;;;;;3.17;2.90;;;22.90;99.90;;;;;;5074617;28;20921;-67
2022/10/29 14:49:56;;;;;;;6.07;3.80;;;22.90;99.90;;;;;;5074524;28;20444;-67
2022/10/29 14:52:29;;;;;;;5.07;2.90;;;22.90;99.90;;;;;;5074409;28;20790;-66
2022/10/29 14:54:59;;;;;;;4.53;4.23;;;22.90;99.90;;;;;;5074096;28;20487;-67
2022/10/29 14:57:30;;;;;;;3.63;3.00;;;22.90;99.90;;;;;;5074364;28;20470;-66
2022/10/29 15:00:01;;;;;;;5.40;3.73;;;22.90;99.90;;;;;;5074403;28;20435;-66
2022/10/29 15:02:34;;;;;;;3.10;2.73;;;22.90;99.90;;;;;;5074411;28;20443;-66
2022/10/29 15:05:01;;;;;;;5.80;3.40;;;22.90;99.90;;;;;;5074317;28;20459;-66
2022/10/29 15:07:33;;;;;;;4.90;3.10;;;22.90;99.90;;;;;;5073878;28;20526;-66
2022/10/29 15:10:19;;;;;;;3.47;2.67;;;22.90;99.90;;;;;;5074025;28;20443;-66
2022/10/29 15:12:48;;;;;;;4.97;2.33;;;22.80;99.90;;;;;;5074377;28;20435;-66
2022/10/29 15:15:28;;;;;;;3.27;2.93;;;22.90;99.90;;;;;;5074126;28;20457;-66
2022/10/29 15:17:59;;;;;;;3.30;3.00;;;22.80;99.90;;;;;;5074144;28;21055;-66
2022/10/29 15:20:32;;;;;;;6.27;3.40;;;22.80;99.90;;;;;;5074030;28;20530;-66
2022/10/29 15:22:59;;;;;;;4.17;3.87;;;22.80;99.90;;;;;;5074040;28;20447;-66
2022/10/29 15:25:30;;;;;;;3.57;3.30;;;22.80;99.90;;;;;;5073968;28;20501;-66
2022/10/29 15:27:58;;;;;;;3.40;2.53;;;22.80;99.90;;;;;;5073943;28;20451;-66
2022/10/29 15:30:33;;;;;;;2.80;2.60;;;22.80;99.90;;;;;;5073585;28;20450;-66
2022/10/29 15:33:02;;;;;;;3.67;2.83;;;22.80;99.90;;;;;;5073800;28;20438;-66
2022/10/29 15:35:29;;;;;;;4.37;3.40;;;22.80;99.90;;;;;;5073583;28;20455;-67
2022/10/29 15:37:56;;;;;;;4.50;2.70;;;22.80;99.90;;;;;;5073570;28;20517;-66
2022/10/29 15:40:24;;;;;;;2.90;2.60;;;22.80;99.90;;;;;;5073460;28;20443;-66
2022/10/29 15:42:52;;;;;;;4.10;3.07;;;22.80;99.90;;;;;;5073606;28;20443;-66
2022/10/29 15:45:25;;;;;;;3.37;3.07;;;22.80;99.90;;;;;;5073395;28;20451;-66
2022/10/29 15:47:57;;;;;;;4.57;2.50;;;22.80;99.90;;;;;;5073466;28;20799;-66
2022/10/29 15:50:25;;;;;;;3.27;2.97;;;22.80;99.90;;;;;;5073226;28;20475;-66
2022/10/29 15:52:55;;;;;;;3.40;2.80;;;22.80;99.90;;;;;;5073358;28;20813;-66
2022/10/29 15:55:26;;;;;;;4.00;3.10;;;22.80;99.90;;;;;;5073087;28;20554;-66
2022/10/29 15:57:55;;;;;;;2.67;2.47;;;22.80;99.90;;;;;;5073470;28;20489;-66
2022/10/29 16:00:24;;;;;;;3.03;2.83;;;22.80;99.90;;;;;;5073048;28;20446;-66
2022/10/29 16:02:54;;;;;;;2.77;2.30;;;22.70;99.90;;;;;;5073177;28;20455;-66
2022/10/29 16:05:21;;;;;;;3.53;2.60;;;22.80;99.90;;;;;;5072927;28;20467;-66
2022/10/29 16:07:48;;;;;;;2.10;1.90;;;22.80;99.90;;;;;;5073149;28;20449;-66
2022/10/29 16:10:18;;;;;;;2.53;2.43;;;22.80;99.90;;;;;;5072879;28;20443;-66
2022/10/29 16:12:45;;;;;;;2.83;2.63;;;22.80;99.90;;;;;;5072734;28;20453;-65
2022/10/29 16:15:17;;;;;;;3.73;3.43;;;22.80;99.90;;;;;;5072873;28;20546;-66
2022/10/29 16:17:44;;;;;;;3.10;2.90;;;22.80;99.90;;;;;;5072902;28;20446;-66
2022/10/29 16:20:18;;;;;;;3.70;3.30;;;22.80;99.90;;;;;;5071760;28;20439;-66
2022/10/29 16:22:46;;;;;;;2.67;2.40;;;22.80;99.90;;;;;;5072795;28;20445;-66
2022/10/29 16:25:22;;;;;;;2.47;2.27;;;22.80;99.90;;;;;;5072698;28;20538;-66
2022/10/29 16:27:49;;;;;;;2.33;2.03;;;22.80;99.90;;;;;;5072645;28;20449;-66
2022/10/29 16:30:16;;;;;;;2.90;2.70;;;22.70;99.90;;;;;;5072521;28;20446;-66
2022/10/29 16:32:43;;;;;;;2.47;2.27;;;22.70;99.90;;;;;;5072581;28;20534;-66
2022/10/29 16:35:16;;;;;;;2.87;2.10;;;22.70;99.90;;;;;;5072249;28;20566;-66
2022/10/29 16:37:44;;;;;;;3.10;2.13;;;22.70;99.90;;;;;;5072526;28;20565;-65
2022/10/29 16:40:11;;;;;;;2.73;2.27;;;22.70;99.90;;;;;;5072294;28;20445;-65
2022/10/29 16:42:39;;;;;;;2.67;2.47;;;22.70;99.90;;;;;;5072319;28;20439;-66
2022/10/29 16:45:08;;;;;;;3.53;2.03;;;22.70;99.90;;;;;;5072443;28;20459;-67
2022/10/29 16:47:35;;;;;;;3.20;2.47;;;22.70;99.90;;;;;;5072301;28;20806;-67
2022/10/29 16:50:03;;;;;;;2.80;2.60;;;22.70;99.90;;;;;;5072008;28;20443;-64
2022/10/29 16:52:30;;;;;;;3.30;2.57;;;22.70;99.90;;;;;;5072303;28;20447;-64
2022/10/29 16:54:58;;;;;;;2.73;2.53;;;22.70;99.90;;;;;;5072280;28;20467;-66
2022/10/29 16:57:25;;;;;;;3.17;2.50;;;22.70;99.90;;;;;;5072069;28;20522;-64
2022/10/29 16:59:52;;;;;;;2.33;2.13;;;22.70;99.90;;;;;;5071818;28;21090;-64
2022/10/29 17:02:18;;;;;;;3.27;2.87;;;22.70;99.90;;;;;;5072056;28;20445;-65
2022/10/29 17:04:45;;;;;;;2.53;2.30;;;22.70;99.90;;;;;;5071870;28;20546;-65
2022/10/29 17:07:12;;;;;;;2.20;2.00;;;22.70;99.90;;;;;;5072067;28;20453;-64
2022/10/29 17:09:39;;;;;;;2.30;2.20;;;22.70;99.90;;;;;;5071778;28;20881;-64
2022/10/29 17:12:07;;;;;;;3.03;2.80;;;22.70;99.90;;;;;;5071632;28;20439;-65
2022/10/29 17:14:34;;;;;;;3.60;3.10;;;22.70;99.90;;;;;;5071730;28;20495;-64
2022/10/29 17:17:01;;;;;;;5.33;2.70;;;22.70;99.90;;;;;;5071937;28;20443;-65
2022/10/29 17:19:28;;;;;;;6.27;2.10;;;22.70;99.90;;;;;;5071867;28;20572;-65
2022/10/29 17:21:57;;;;;;;2.20;2.10;;;22.70;99.90;;;;;;5071724;28;20934;-65
2022/10/29 17:24:24;;;;;;;1.90;1.80;;;22.70;99.90;;;;;;5071629;28;20473;-64
2022/10/29 17:26:51;;;;;;;2.60;2.30;;;22.70;99.90;;;;;;5071807;28;20451;-65
2022/10/29 17:29:19;;;;;;;2.50;2.30;;;22.70;99.90;;;;;;5071885;28;20435;-65
2022/10/29 17:31:46;;;;;;;2.37;2.17;;;22.70;99.90;;;;;;5071422;28;20439;-64
2022/10/29 17:34:13;;;;;;;2.60;2.40;;;22.70;99.90;;;;;;5071540;28;20900;-65
2022/10/29 17:36:42;;;;;;;2.80;1.93;;;22.70;99.90;;;;;;5071681;28;20486;-65
2022/10/29 17:39:09;;;;;;;2.77;2.30;;;22.70;99.90;;;;;;5071545;28;20490;-65
2022/10/29 17:41:36;;;;;;;1.87;1.57;;;22.70;99.90;;;;;;5071222;28;20457;-65
2022/10/29 17:44:03;;;;;;;2.70;2.50;;;22.70;99.90;;;;;;5071546;28;20469;-65
2022/10/29 17:46:31;;;;;;;2.17;2.07;;;22.70;99.90;;;;;;5071529;28;20442;-65
2022/10/29 17:48:58;;;;;;;2.23;1.80;;;22.70;99.90;;;;;;5071530;28;20530;-65
2022/10/29 17:51:25;;;;;;;2.13;2.00;;;22.70;99.90;;;;;;5071672;28;20447;-67
2022/10/29 17:53:51;;;;;;;1.90;1.80;;;22.70;99.90;;;;;;5071450;28;20474;-67
2022/10/29 17:56:18;;;;;;;2.30;2.20;;;22.70;99.90;;;;;;5071096;28;20439;-65
2022/10/29 17:58:45;;;;;;;2.30;2.20;;;22.70;99.90;;;;;;5071335;28;20489;-66
2022/10/29 18:01:12;;;;;;;2.10;2.00;;;22.70;99.90;;;;;;5070452;28;21027;-66
2022/10/29 18:03:40;;;;;;;2.10;2.00;;;22.70;99.90;;;;;;5069694;28;20489;-62
2022/10/29 18:06:09;;;;;;;4.43;3.03;;;22.70;99.90;;;;;;5071070;28;20615;-68
2022/10/29 18:08:37;;;;;;;3.87;3.00;;;22.70;99.90;;;;;;5071359;28;20449;-67
2022/10/29 18:11:06;;;;;;;4.70;3.37;;;22.80;99.90;;;;;;5071131;28;20534;-68
2022/10/29 18:13:37;;;;;;;5.47;3.90;;;22.90;99.90;;;;;;5071543;28;20557;-68
2022/10/29 18:16:04;;;;;;;4.50;3.07;;;23.00;99.90;;;;;;5072175;28;20455;-67
2022/10/29 18:18:34;;;;;;;6.90;3.50;;;23.00;99.90;;;;;;5071948;28;20562;-68
2022/10/29 18:21:03;;;;;;;4.70;3.57;;;23.10;99.90;;;;;;5071540;28;20501;-69
2022/10/29 18:23:31;;;;;;;3.80;3.47;;;23.10;99.90;;;;;;5071030;28;20506;-69
2022/10/29 18:25:59;;;;;;;4.90;3.90;;;23.20;99.90;;;;;;5071412;28;20446;-70
2022/10/29 18:28:26;;;;;;;4.70;3.03;;;23.30;99.90;;;;;;5071304;28;20449;-70
2022/10/29 18:30:53;;;;;;;4.47;3.53;;;23.30;99.90;;;;;;5071205;28;20530;-69
2022/10/29 18:33:20;;;;;;;4.10;3.50;;;23.40;99.90;;;;;;5071224;28;20857;-69
2022/10/29 18:35:47;;;;;;;6.07;4.27;;;23.40;99.90;;;;;;5070946;28;20997;-69
2022/10/29 18:38:16;;;;;;;2.80;2.60;;;23.50;99.90;;;;;;5071115;28;20473;-69
2022/10/29 18:40:43;;;;;;;3.60;3.30;;;23.50;99.90;;;;;;5070959;28;20474;-68
2022/10/29 18:43:10;;;;;;;4.33;3.93;;;23.50;99.90;;;;;;5072618;28;20866;-69